Flight Track Log - Related Links

Times and Time Zones

All times are in EDT time to prevent confusion due to time zone crossing. See the EJA396 flight status page for this flight to view local times or setup timezone preferences in your user account.

Time Position Orientation Groundspeed Altitude Reporting Facility
EDT Latitude Longitude Course Direction KTS MPH feet Rate Location/Type
Wed 07:59:26 AM 25.8000 -80.2792 81° East 154 177 1,100  Level Miami Center
Wed 08:00:27 AM 25.8103 -80.2056 81° East 265 305 5,100 4,086 Climbing Miami Center
Wed 08:01:22 AM 25.8592 -80.1586 41° Northeast 302 348 9,000 3,885 Climbing Miami Center
Wed 08:02:29 AM 25.9356 -80.2092 329° Northwest 309 356 13,000 3,000 Climbing Miami Center
Wed 08:03:42 AM 26.0217 -80.2694 328° Northwest 341 392 16,000 1,444 Climbing Miami Center
Wed 08:04:42 AM 26.0956 -80.3269 325° Northwest 342 394 16,200 1,600 Climbing Miami Center
Wed 08:05:42 AM 26.1714 -80.3847 326° Northwest 337 388 19,200 2,900 Climbing Miami Center
Wed 08:06:42 AM 26.2639 -80.4475 329° Northwest 337 388 22,000 1,400 Climbing Miami Center
Wed 08:07:42 AM 26.3528 -80.4897 337° Northwest 342 394 22,000  Level Miami Center
Wed 08:08:42 AM 26.4558 -80.5392 337° Northwest 382 440 22,000  Level Miami Center
Wed 08:09:42 AM 26.5569 -80.5867 337° Northwest 392 451 22,000  Level Miami Center
Wed 08:10:42 AM 26.6519 -80.6314 337° Northwest 397 457 22,000  Level Miami Center
Wed 08:11:42 AM 26.7694 -80.6864 337° Northwest 403 464 22,000  Level Miami Center
Wed 08:12:42 AM 26.8686 -80.7269 340° North 409 471 22,000  Level Miami Center
Wed 08:13:42 AM 26.9764 -80.7653 342° North 409 471 22,000  Level Miami Center
Wed 08:14:42 AM 27.0839 -80.8039 342° North 404 465 22,000 -650 Level Miami Center
Wed 08:15:42 AM 27.1892 -80.8425 342° North 399 459 20,700 -1,750 Descending Miami Center
Wed 08:16:42 AM 27.2925 -80.8789 343° North 399 459 18,500 -1,850 Descending Miami Center
Wed 08:17:42 AM 27.3958 -80.9175 342° North 394 453 17,000 -750 Descending Miami Center
Wed 08:18:42 AM 27.5075 -80.9567 343° North 394 453 17,000  Level Miami Center
Wed 08:19:42 AM 27.6006 -80.9881 343° North 388 447 17,000 -1,101 Level Miami Center
Wed 08:21:31 AM 27.8000 -81.0667 341° North 367 422 13,900 -1,775 Descending Orlando TRACON
Wed 08:22:31 AM 27.8833 -81.1000 341° North 362 417 12,000 -1,526 Descending Orlando TRACON
Wed 08:23:25 AM 27.9833 -81.1167 352° North 357 411 11,000 -1,050 Descending Orlando TRACON
Wed 08:24:31 AM 28.0667 -81.1833 325° Northwest 301 346 9,900 -952 Descending Orlando TRACON
Wed 08:25:31 AM 28.1167 -81.2333 319° Northwest 278 320 9,000 -450 Descending Orlando TRACON
Wed 08:26:31 AM 28.1833 -81.2833 327° Northwest 280 322 9,000  Level Orlando TRACON
Wed 08:27:31 AM 28.2500 -81.3333 327° Northwest 284 327 9,000  Level Orlando TRACON
Wed 08:28:31 AM 28.3167 -81.3833 327° Northwest 284 327 9,000  Level Orlando TRACON
Wed 08:29:31 AM 28.4000 -81.4167 341° North 293 337 9,000 -650 Level Orlando TRACON
Wed 08:30:31 AM 28.4667 -81.4333 348° North 290 334 7,700 -1,500 Descending Orlando TRACON
Wed 08:31:31 AM 28.5500 -81.4333 360° North 287 330 6,000 -1,537 Descending Orlando TRACON
Wed 08:32:32 AM 28.6333 -81.4500 350° North 268 308 4,600 -1,736 Descending Orlando TRACON
Wed 08:33:32 AM 28.7000 -81.4333 12° North 233 268 2,500 -1,300 Descending Orlando TRACON
Wed 08:34:32 AM 28.7500 -81.4333 360° North 201 231 2,000 -429 Descending Orlando TRACON
Wed 08:35:38 AM 28.7833 -81.3833 53° Northeast 178 205 1,600 -300 Descending Orlando TRACON
Wed 08:36:32 AM 28.7833 -81.3333 90° East 170 196 1,400 -222 Descending Orlando TRACON

Login

Don't have an account? Register now (free) for customized features, flight alerts, and more!